sensor_id;sensor_type;location;lat;lon;timestamp;pressure;altitude;pressure_sealevel;temperature;humidity
39309;BME280;26019;47.510;19.122;2023-02-03T00:07:22;100804.28;;;1.02;100.00
39309;BME280;26019;47.510;19.122;2023-02-03T00:17:24;100813.22;;;0.93;100.00
39309;BME280;26019;47.510;19.122;2023-02-03T00:27:26;100833.66;;;0.94;100.00
39309;BME280;26019;47.510;19.122;2023-02-03T00:37:31;100856.22;;;0.86;100.00
39309;BME280;26019;47.510;19.122;2023-02-03T00:47:34;100874.00;;;0.65;100.00
39309;BME280;26019;47.510;19.122;2023-02-03T00:57:36;100875.75;;;0.66;100.00
39309;BME280;26019;47.510;19.122;2023-02-03T01:07:38;100888.78;;;0.54;100.00
39309;BME280;26019;47.510;19.122;2023-02-03T01:17:41;100887.94;;;0.54;100.00
39309;BME280;26019;47.510;19.122;2023-02-03T01:27:43;100903.19;;;0.54;100.00
39309;BME280;26019;47.510;19.122;2023-02-03T01:37:45;100914.03;;;0.50;100.00
39309;BME280;26019;47.510;19.122;2023-02-03T01:47:53;100913.81;;;0.45;100.00
39309;BME280;26019;47.510;19.122;2023-02-03T01:58:06;100929.88;;;0.44;100.00
39309;BME280;26019;47.510;19.122;2023-02-03T02:08:09;100933.09;;;0.40;100.00
39309;BME280;26019;47.510;19.122;2023-02-03T02:18:27;100927.44;;;0.27;100.00
39309;BME280;26019;47.510;19.122;2023-02-03T02:49:02;100919.38;;;0.18;100.00
39309;BME280;26019;47.510;19.122;2023-02-03T02:59:05;100928.75;;;0.19;100.00
39309;BME280;26019;47.510;19.122;2023-02-03T03:19:39;100943.19;;;0.20;100.00
39309;BME280;26019;47.510;19.122;2023-02-03T03:29:53;100916.28;;;0.06;100.00
39309;BME280;26019;47.510;19.122;2023-02-03T03:39:59;100919.94;;;-0.07;100.00
39309;BME280;26019;47.510;19.122;2023-02-03T03:50:05;100921.09;;;-0.19;100.00
39309;BME280;26019;47.510;19.122;2023-02-03T04:00:10;100921.09;;;-0.19;100.00
39309;BME280;26019;47.510;19.122;2023-02-03T04:10:35;100912.97;;;-0.29;100.00
39309;BME280;26019;47.510;19.122;2023-02-03T04:20:38;100911.72;;;-0.20;100.00
39309;BME280;26019;47.510;19.122;2023-02-03T04:30:40;100906.13;;;-0.12;100.00
39309;BME280;26019;47.510;19.122;2023-02-03T04:40:42;100918.91;;;-0.29;100.00
39309;BME280;26019;47.510;19.122;2023-02-03T04:50:46;100915.00;;;-0.40;100.00
39309;BME280;26019;47.510;19.122;2023-02-03T05:00:48;100903.66;;;-0.29;100.00
39309;BME280;26019;47.510;19.122;2023-02-03T05:10:51;100889.75;;;-0.37;100.00
39309;BME280;26019;47.510;19.122;2023-02-03T05:20:54;100898.00;;;-0.41;100.00
39309;BME280;26019;47.510;19.122;2023-02-03T05:30:59;100911.44;;;-0.26;100.00
39309;BME280;26019;47.510;19.122;2023-02-03T05:41:02;100910.19;;;-0.16;100.00
39309;BME280;26019;47.510;19.122;2023-02-03T05:51:22;100913.66;;;0.04;100.00
39309;BME280;26019;47.510;19.122;2023-02-03T06:01:25;100927.53;;;0.29;91.18
39309;BME280;26019;47.510;19.122;2023-02-03T06:11:27;100917.66;;;0.55;87.76
39309;BME280;26019;47.510;19.122;2023-02-03T06:21:29;100917.78;;;0.58;86.94
39309;BME280;26019;47.510;19.122;2023-02-03T06:31:31;100933.38;;;0.66;87.19
39309;BME280;26019;47.510;19.122;2023-02-03T06:41:32;100937.94;;;0.73;89.96
39309;BME280;26019;47.510;19.122;2023-02-03T06:51:36;100940.81;;;0.81;87.16
39309;BME280;26019;47.510;19.122;2023-02-03T07:01:40;100921.13;;;0.96;89.99
39309;BME280;26019;47.510;19.122;2023-02-03T07:11:42;100925.25;;;1.14;76.74
39309;BME280;26019;47.510;19.122;2023-02-03T07:21:45;100923.84;;;1.42;74.13
39309;BME280;26019;47.510;19.122;2023-02-03T07:31:48;100920.44;;;1.62;66.93
39309;BME280;26019;47.510;19.122;2023-02-03T07:41:50;100916.84;;;1.78;66.40
39309;BME280;26019;47.510;19.122;2023-02-03T07:51:52;100939.31;;;1.68;61.85
39309;BME280;26019;47.510;19.122;2023-02-03T08:01:53;100937.16;;;1.77;62.21
39309;BME280;26019;47.510;19.122;2023-02-03T08:11:58;100939.53;;;1.72;62.50
39309;BME280;26019;47.510;19.122;2023-02-03T08:21:59;100951.25;;;1.69;59.64
39309;BME280;26019;47.510;19.122;2023-02-03T08:32:01;100952.06;;;1.89;60.24
39309;BME280;26019;47.510;19.122;2023-02-03T08:42:05;100961.44;;;1.69;61.46
39309;BME280;26019;47.510;19.122;2023-02-03T08:52:14;100954.72;;;1.92;61.67
39309;BME280;26019;47.510;19.122;2023-02-03T09:02:21;100955.91;;;2.00;64.94
39309;BME280;26019;47.510;19.122;2023-02-03T09:12:23;100959.34;;;1.58;79.91
39309;BME280;26019;47.510;19.122;2023-02-03T09:22:25;100956.88;;;1.19;100.00
39309;BME280;26019;47.510;19.122;2023-02-03T09:32:30;100969.22;;;0.33;100.00
39309;BME280;26019;47.510;19.122;2023-02-03T09:43:01;100940.47;;;-0.03;100.00
39309;BME280;26019;47.510;19.122;2023-02-03T09:53:26;100917.75;;;-0.18;100.00
39309;BME280;26019;47.510;19.122;2023-02-03T10:23:52;100827.19;;;0.62;100.00
39309;BME280;26019;47.510;19.122;2023-02-03T10:34:09;100812.34;;;0.71;100.00
39309;BME280;26019;47.510;19.122;2023-02-03T10:44:12;100790.72;;;0.61;100.00
39309;BME280;26019;47.510;19.122;2023-02-03T11:04:31;100744.13;;;0.62;100.00
39309;BME280;26019;47.510;19.122;2023-02-03T11:14:39;100721.25;;;0.62;100.00
39309;BME280;26019;47.510;19.122;2023-02-03T11:24:45;100703.13;;;0.33;100.00
39309;BME280;26019;47.510;19.122;2023-02-03T11:35:50;100679.06;;;0.46;100.00
39309;BME280;26019;47.510;19.122;2023-02-03T12:26:17;100540.78;;;0.00;100.00
39309;BME280;26019;47.510;19.122;2023-02-03T12:36:30;100498.59;;;-0.16;100.00
39309;BME280;26019;47.510;19.122;2023-02-03T12:46:44;100474.22;;;-0.12;100.00
39309;BME280;26019;47.510;19.122;2023-02-03T12:56:50;100439.50;;;-0.12;100.00
39309;BME280;26019;47.510;19.122;2023-02-03T13:07:10;100410.53;;;-0.17;100.00
39309;BME280;26019;47.510;19.122;2023-02-03T13:17:24;100395.81;;;-0.03;100.00
39309;BME280;26019;47.510;19.122;2023-02-03T13:48:47;100327.69;;;0.34;100.00
39309;BME280;26019;47.510;19.122;2023-02-03T14:29:35;100261.44;;;0.81;100.00
39309;BME280;26019;47.510;19.122;2023-02-03T15:10:30;100189.44;;;1.11;100.00
39309;BME280;26019;47.510;19.122;2023-02-03T15:20:45;100171.78;;;1.15;100.00
39309;BME280;26019;47.510;19.122;2023-02-03T15:31:18;100162.00;;;1.29;100.00
39309;BME280;26019;47.510;19.122;2023-02-03T15:41:24;100149.50;;;1.39;100.00
39309;BME280;26019;47.510;19.122;2023-02-03T15:51:36;100136.97;;;1.45;100.00
39309;BME280;26019;47.510;19.122;2023-02-03T16:01:41;100114.09;;;1.46;100.00
39309;BME280;26019;47.510;19.122;2023-02-03T16:11:44;100119.25;;;1.49;100.00
39309;BME280;26019;47.510;19.122;2023-02-03T16:21:56;100108.91;;;1.43;100.00
39309;BME280;26019;47.510;19.122;2023-02-03T16:32:01;100082.28;;;1.32;100.00
39309;BME280;26019;47.510;19.122;2023-02-03T16:42:21;100050.63;;;1.24;100.00
39309;BME280;26019;47.510;19.122;2023-02-03T16:52:42;100028.47;;;1.19;100.00
39309;BME280;26019;47.510;19.122;2023-02-03T17:02:45;100009.72;;;1.17;100.00
39309;BME280;26019;47.510;19.122;2023-02-03T17:12:47;99963.31;;;1.26;100.00
39309;BME280;26019;47.510;19.122;2023-02-03T17:22:55;99946.13;;;1.53;100.00
39309;BME280;26019;47.510;19.122;2023-02-03T17:32:57;99930.44;;;1.71;100.00
39309;BME280;26019;47.510;19.122;2023-02-03T17:43:00;99930.31;;;2.03;100.00
39309;BME280;26019;47.510;19.122;2023-02-03T17:53:20;99909.53;;;2.22;100.00
39309;BME280;26019;47.510;19.122;2023-02-03T18:03:25;99904.63;;;2.32;100.00
39309;BME280;26019;47.510;19.122;2023-02-03T18:13:28;99889.56;;;2.44;100.00
39309;BME280;26019;47.510;19.122;2023-02-03T18:23:35;99876.56;;;2.76;100.00
39309;BME280;26019;47.510;19.122;2023-02-03T18:33:37;99846.47;;;3.07;100.00
39309;BME280;26019;47.510;19.122;2023-02-03T18:43:43;99833.00;;;3.14;100.00
39309;BME280;26019;47.510;19.122;2023-02-03T18:53:47;99885.22;;;3.34;100.00
39309;BME280;26019;47.510;19.122;2023-02-03T19:03:51;99867.66;;;3.54;100.00
39309;BME280;26019;47.510;19.122;2023-02-03T19:13:57;99841.25;;;3.53;100.00
39309;BME280;26019;47.510;19.122;2023-02-03T19:23:59;99833.47;;;3.46;100.00
39309;BME280;26019;47.510;19.122;2023-02-03T19:34:14;99848.66;;;3.36;100.00
39309;BME280;26019;47.510;19.122;2023-02-03T19:44:19;99821.16;;;3.20;100.00
39309;BME280;26019;47.510;19.122;2023-02-03T19:54:24;99823.41;;;3.01;100.00
39309;BME280;26019;47.510;19.122;2023-02-03T20:04:28;99814.56;;;2.82;100.00
39309;BME280;26019;47.510;19.122;2023-02-03T20:14:31;99808.59;;;2.81;100.00
39309;BME280;26019;47.510;19.122;2023-02-03T20:24:36;99791.09;;;3.02;100.00
39309;BME280;26019;47.510;19.122;2023-02-03T20:34:39;99786.88;;;3.05;100.00
39309;BME280;26019;47.510;19.122;2023-02-03T20:44:42;99806.94;;;2.83;100.00
39309;BME280;26019;47.510;19.122;2023-02-03T20:54:46;99781.31;;;2.76;100.00
39309;BME280;26019;47.510;19.122;2023-02-03T21:04:51;99794.13;;;2.80;100.00
39309;BME280;26019;47.510;19.122;2023-02-03T21:14:59;99790.84;;;2.88;100.00
39309;BME280;26019;47.510;19.122;2023-02-03T21:25:19;99822.78;;;3.14;100.00
39309;BME280;26019;47.510;19.122;2023-02-03T21:35:36;99854.31;;;3.17;100.00
39309;BME280;26019;47.510;19.122;2023-02-03T21:45:43;99875.22;;;2.95;100.00
39309;BME280;26019;47.510;19.122;2023-02-03T21:55:49;99857.59;;;3.09;100.00
39309;BME280;26019;47.510;19.122;2023-02-03T22:16:12;99855.13;;;2.66;100.00
39309;BME280;26019;47.510;19.122;2023-02-03T22:36:09;99904.19;;;2.99;100.00
39309;BME280;26019;47.510;19.122;2023-02-03T22:56:14;99923.06;;;3.07;100.00
39309;BME280;26019;47.510;19.122;2023-02-03T23:16:18;99888.28;;;3.12;100.00
39309;BME280;26019;47.510;19.122;2023-02-03T23:26:20;99882.03;;;2.96;100.00
39309;BME280;26019;47.510;19.122;2023-02-03T23:36:22;99863.53;;;3.08;100.00
